LRH weather

La Rochelle-Île de Ré Airport
La Rochelle/Île de Ré, Poitou-Charentes, France

Public forecast

Using degrees Celsius for public forecast. Weather courtesy of forecast.io.

METAR (pilot weather report)

Retrieved 2019/07/20 08:30 UTC (4 minutes ago):

LFBH 200830Z AUTO 24007KT 210V270 9999 OVC027 23/17 Q1015 NOSIG

TAF (pilot weather forecast)

Retrieved 2019/07/20 06:21 UTC (2 hours ago):

TAF LFBH 200500Z 2006/2106 24008KT 9999 BKN025 BECMG 2014/2016 32010KT BECMG 2016/2018 CAVOK BECMG 2022/2024 32005KT